Time;durP1;ratioP1;P1;durP2;ratioP2;P2;SDS_P1;SDS_P2;PMS_P1;PMS_P2;Temp;Humidity;BMP_temperature;BMP_pressure;BME280_temperature;BME280_humidity;BME280_pressure;Samples;Min_cycle;Max_cycle;Signal;HPM_P1;HPM_P2
2022/07/25 00:00:16;;;;;;;;;;;24.10;45.00;;;;;;5091046;28;20022;-72
2022/07/25 00:02:44;;;;;;;;;;;24.10;45.30;;;;;;5093761;28;20011;-72
2022/07/25 00:05:11;;;;;;;;;;;24.10;45.30;;;;;;5091529;28;20375;-72
2022/07/25 00:07:38;;;;;;;;;;;24.00;45.30;;;;;;5093723;28;19924;-72
2022/07/25 00:10:05;;;;;;;;;;;24.00;45.50;;;;;;5090788;28;20454;-72
2022/07/25 00:12:32;;;;;;;;;;;24.00;45.60;;;;;;5093149;28;20019;-73
2022/07/25 00:14:58;;;;;;;;;;;24.00;45.90;;;;;;5091025;28;19963;-72
2022/07/25 00:17:25;;;;;;;;;;;24.00;46.00;;;;;;5087294;28;19924;-72
2022/07/25 00:19:53;;;;;;;;;;;24.00;45.90;;;;;;5091065;28;20327;-72
2022/07/25 00:22:20;;;;;;;;;;;23.90;46.20;;;;;;5080474;28;19940;-72
2022/07/25 00:24:47;;;;;;;;;;;23.90;46.50;;;;;;5073133;28;19931;-73
2022/07/25 00:27:13;;;;;;;;;;;23.80;47.20;;;;;;5074014;28;20452;-72
2022/07/25 00:29:40;;;;;;;;;;;23.70;48.00;;;;;;5084494;28;20002;-72
2022/07/25 00:32:07;;;;;;;;;;;23.50;49.50;;;;;;5083600;28;20131;-72
2022/07/25 00:34:33;;;;;;;;;;;23.30;51.40;;;;;;5084079;28;20011;-72
2022/07/25 00:37:01;;;;;;;;;;;23.10;52.80;;;;;;5093716;28;20269;-72
2022/07/25 00:39:28;;;;;;;;;;;23.00;54.10;;;;;;5091093;28;19968;-72
2022/07/25 00:41:55;;;;;;;;;;;23.00;54.90;;;;;;5093395;28;20007;-72
2022/07/25 00:44:23;;;;;;;;;;;22.90;55.10;;;;;;5090806;28;19924;-72
2022/07/25 00:46:49;;;;;;;;;;;22.90;56.10;;;;;;5092466;28;20398;-72
2022/07/25 00:49:16;;;;;;;;;;;22.90;57.00;;;;;;5081871;28;20391;-72
2022/07/25 00:51:43;;;;;;;;;;;22.90;58.40;;;;;;5073076;28;19931;-72
2022/07/25 00:54:11;;;;;;;;;;;22.80;59.70;;;;;;5072121;28;20362;-72
2022/07/25 00:56:37;;;;;;;;;;;22.70;60.70;;;;;;5072705;28;19990;-72
2022/07/25 00:59:04;;;;;;;;;;;22.60;62.60;;;;;;5072213;28;20015;-72
2022/07/25 01:01:31;;;;;;;;;;;22.60;64.20;;;;;;5072359;28;20031;-72
2022/07/25 01:03:58;;;;;;;;;;;22.60;65.20;;;;;;5071727;28;19971;-72
2022/07/25 01:06:25;;;;;;;;;;;22.50;67.00;;;;;;5072766;28;19924;-72
2022/07/25 01:08:52;;;;;;;;;;;22.50;68.40;;;;;;5077331;28;19924;-72
2022/07/25 01:11:21;;;;;;;;;;;22.40;69.70;;;;;;5092800;28;19924;-72
2022/07/25 01:13:47;;;;;;;;;;;22.40;70.60;;;;;;5089908;28;19932;-72
2022/07/25 01:16:14;;;;;;;;;;;22.40;71.30;;;;;;5092122;28;20462;-72
2022/07/25 01:18:41;;;;;;;;;;;22.40;72.50;;;;;;5080471;28;19980;-72
2022/07/25 01:21:09;;;;;;;;;;;22.40;73.60;;;;;;5072468;28;19928;-72
2022/07/25 01:23:36;;;;;;;;;;;22.40;74.90;;;;;;5074147;28;19960;-72
2022/07/25 01:26:02;;;;;;;;;;;22.30;75.80;;;;;;5082273;28;20024;-72
2022/07/25 01:28:29;;;;;;;;;;;22.30;76.70;;;;;;5074402;28;20003;-72
2022/07/25 01:30:56;;;;;;;;;;;22.30;78.10;;;;;;5092191;28;20368;-73
2022/07/25 01:33:23;;;;;;;;;;;22.30;79.20;;;;;;5089806;28;19943;-72
2022/07/25 01:35:50;;;;;;;;;;;22.30;80.50;;;;;;5085789;28;20405;-72
2022/07/25 01:38:18;;;;;;;;;;;22.20;81.50;;;;;;5073828;28;20864;-73
2022/07/25 01:40:44;;;;;;;;;;;22.20;82.30;;;;;;5071832;28;19931;-73
2022/07/25 01:43:11;;;;;;;;;;;22.20;83.10;;;;;;5074559;28;19966;-73
2022/07/25 01:45:38;;;;;;;;;;;22.20;84.00;;;;;;5082526;28;19928;-73
2022/07/25 01:48:05;;;;;;;;;;;22.20;85.50;;;;;;5095055;28;19968;-73
2022/07/25 01:50:31;;;;;;;;;;;22.20;87.50;;;;;;5076475;28;19924;-73
2022/07/25 01:52:58;;;;;;;;;;;22.20;87.90;;;;;;5075235;28;20349;-72
2022/07/25 01:55:26;;;;;;;;;;;22.10;88.00;;;;;;5094180;28;20352;-73
2022/07/25 01:57:53;;;;;;;;;;;22.10;88.20;;;;;;5096476;28;19986;-72
2022/07/25 02:00:20;;;;;;;;;;;22.10;88.80;;;;;;5093864;28;19959;-72
2022/07/25 02:02:46;;;;;;;;;;;22.10;89.20;;;;;;5094304;28;19971;-72
2022/07/25 02:05:14;;;;;;;;;;;22.10;88.80;;;;;;5093875;28;20030;-73
2022/07/25 02:07:40;;;;;;;;;;;22.10;89.20;;;;;;5090669;28;20310;-72
2022/07/25 02:10:08;;;;;;;;;;;22.10;89.30;;;;;;5091149;28;19928;-73
2022/07/25 02:12:36;;;;;;;;;;;22.10;89.00;;;;;;5095725;28;19982;-73
2022/07/25 02:15:03;;;;;;;;;;;22.10;89.20;;;;;;5089864;28;19931;-72
2022/07/25 02:17:30;;;;;;;;;;;22.10;90.00;;;;;;5095662;28;20417;-72
2022/07/25 02:19:56;;;;;;;;;;;22.10;89.80;;;;;;5079485;28;20410;-72
2022/07/25 02:22:23;;;;;;;;;;;22.10;89.80;;;;;;5075669;28;19971;-73
2022/07/25 02:24:50;;;;;;;;;;;22.10;90.00;;;;;;5074581;28;20015;-74
2022/07/25 02:27:16;;;;;;;;;;;22.10;90.30;;;;;;5075712;28;19990;-72
2022/07/25 02:29:44;;;;;;;;;;;22.10;90.50;;;;;;5087519;28;20367;-72
2022/07/25 02:32:11;;;;;;;;;;;22.00;90.90;;;;;;5095386;28;19977;-72
2022/07/25 02:34:38;;;;;;;;;;;22.00;91.20;;;;;;5093017;28;19928;-72
2022/07/25 02:37:04;;;;;;;;;;;21.90;91.60;;;;;;5095228;28;19955;-73
2022/07/25 02:39:31;;;;;;;;;;;21.90;91.90;;;;;;5093647;28;20007;-72
2022/07/25 02:41:58;;;;;;;;;;;21.80;92.10;;;;;;5078021;28;19925;-72
2022/07/25 02:44:25;;;;;;;;;;;21.80;92.30;;;;;;5074808;28;20011;-72
2022/07/25 02:46:53;;;;;;;;;;;21.80;92.50;;;;;;5074997;28;19975;-72
2022/07/25 02:49:19;;;;;;;;;;;21.70;92.80;;;;;;5083818;28;20006;-72
2022/07/25 02:51:46;;;;;;;;;;;21.70;93.20;;;;;;5094946;28;19924;-72
2022/07/25 02:54:13;;;;;;;;;;;21.70;93.40;;;;;;5091799;28;19966;-72
2022/07/25 02:56:39;;;;;;;;;;;21.70;93.60;;;;;;5081789;28;20007;-73
2022/07/25 02:59:06;;;;;;;;;;;21.80;93.60;;;;;;5073332;28;20008;-72
2022/07/25 03:01:33;;;;;;;;;;;21.80;93.60;;;;;;5075054;28;19939;-72
2022/07/25 03:04:01;;;;;;;;;;;21.80;93.60;;;;;;5081249;28;19930;-72
2022/07/25 03:06:28;;;;;;;;;;;21.80;93.80;;;;;;5094879;28;20182;-72
2022/07/25 03:08:54;;;;;;;;;;;21.80;94.00;;;;;;5093900;28;19934;-72
2022/07/25 03:11:21;;;;;;;;;;;21.80;94.00;;;;;;5095115;28;20011;-72
2022/07/25 03:13:48;;;;;;;;;;;21.80;94.50;;;;;;5090067;28;19979;-72
2022/07/25 03:16:15;;;;;;;;;;;21.60;95.40;;;;;;5094468;28;20444;-73
2022/07/25 03:18:41;;;;;;;;;;;21.40;96.30;;;;;;5092718;28;19924;-72
2022/07/25 03:21:09;;;;;;;;;;;21.40;97.10;;;;;;5094760;28;20020;-72
2022/07/25 03:23:36;;;;;;;;;;;21.30;97.60;;;;;;5080146;28;20019;-73
2022/07/25 03:26:03;;;;;;;;;;;21.30;97.90;;;;;;5073646;28;20019;-73
2022/07/25 03:28:30;;;;;;;;;;;21.30;98.30;;;;;;5075628;28;19925;-72
2022/07/25 03:30:56;;;;;;;;;;;21.30;98.50;;;;;;5073469;28;19975;-73
2022/07/25 03:33:23;;;;;;;;;;;21.30;98.80;;;;;;5075141;28;19985;-73
2022/07/25 03:35:50;;;;;;;;;;;21.30;99.20;;;;;;5093683;28;20022;-72
2022/07/25 03:38:18;;;;;;;;;;;21.20;99.50;;;;;;5077527;28;20358;-73
2022/07/25 03:40:45;;;;;;;;;;;21.20;99.70;;;;;;5094013;28;20425;-72
2022/07/25 03:43:11;;;;;;;;;;;21.20;99.90;;;;;;5092319;28;19969;-71
2022/07/25 03:45:38;;;;;;;;;;;21.10;99.90;;;;;;5074482;28;20382;-72
2022/07/25 03:48:05;;;;;;;;;;;21.10;99.80;;;;;;5073962;28;19924;-73
2022/07/25 03:50:32;;;;;;;;;;;21.10;99.20;;;;;;5092862;28;19978;-73
2022/07/25 03:52:59;;;;;;;;;;;21.10;98.30;;;;;;5093864;28;19967;-72
2022/07/25 03:55:27;;;;;;;;;;;21.10;97.50;;;;;;5091630;28;20359;-72
2022/07/25 03:57:54;;;;;;;;;;;21.10;97.00;;;;;;5093350;28;19924;-73
2022/07/25 04:00:20;;;;;;;;;;;21.10;96.70;;;;;;5091591;28;20361;-73
2022/07/25 04:02:47;;;;;;;;;;;21.00;96.70;;;;;;5093995;28;20022;-72
2022/07/25 04:05:14;;;;;;;;;;;21.00;96.40;;;;;;5083671;28;19925;-72
2022/07/25 04:07:40;;;;;;;;;;;21.00;96.00;;;;;;5072517;28;20414;-72
2022/07/25 04:10:08;;;;;;;;;;;21.00;95.90;;;;;;5088776;28;20082;-72
2022/07/25 04:12:36;;;;;;;;;;;21.00;95.80;;;;;;5093275;28;19976;-73
2022/07/25 04:15:03;;;;;;;;;;;20.90;95.60;;;;;;5091192;28;19924;-73
2022/07/25 04:17:30;;;;;;;;;;;21.00;95.70;;;;;;5084575;28;19967;-72
2022/07/25 04:19:56;;;;;;;;;;;21.00;95.50;;;;;;5087889;28;19959;-72
2022/07/25 04:22:23;;;;;;;;;;;21.00;95.40;;;;;;5093596;28;20010;-72
2022/07/25 04:24:50;;;;;;;;;;;20.90;95.30;;;;;;5075940;28;19929;-72
2022/07/25 04:27:16;;;;;;;;;;;20.90;95.20;;;;;;5072598;28;19931;-72
2022/07/25 04:29:44;;;;;;;;;;;20.90;95.50;;;;;;5085700;28;19924;-72
2022/07/25 04:32:12;;;;;;;;;;;20.80;95.50;;;;;;5084022;28;20378;-72
2022/07/25 04:34:39;;;;;;;;;;;20.80;95.50;;;;;;5084851;28;20012;-72
2022/07/25 04:37:05;;;;;;;;;;;20.80;95.40;;;;;;5093467;28;20019;-70
2022/07/25 04:39:32;;;;;;;;;;;20.80;95.10;;;;;;5090857;28;19990;-72
2022/07/25 04:41:59;;;;;;;;;;;20.80;95.10;;;;;;5092696;28;20345;-72
2022/07/25 04:44:25;;;;;;;;;;;20.80;94.90;;;;;;5090729;28;20003;-72
2022/07/25 04:46:53;;;;;;;;;;;20.80;94.70;;;;;;5093036;28;20000;-72
2022/07/25 04:49:20;;;;;;;;;;;20.80;94.70;;;;;;5073811;28;20398;-71
2022/07/25 04:51:47;;;;;;;;;;;20.80;94.70;;;;;;5072373;28;19964;-72
2022/07/25 04:54:13;;;;;;;;;;;20.80;94.50;;;;;;5072224;28;20016;-72
2022/07/25 04:56:40;;;;;;;;;;;20.70;94.80;;;;;;5072566;28;20411;-72
2022/07/25 04:59:07;;;;;;;;;;;20.70;94.80;;;;;;5080106;28;19930;-72
2022/07/25 05:01:33;;;;;;;;;;;20.70;94.80;;;;;;5093114;28;20019;-72
2022/07/25 05:04:01;;;;;;;;;;;20.70;94.80;;;;;;5078613;28;19924;-72
2022/07/25 05:06:28;;;;;;;;;;;20.70;94.90;;;;;;5092712;28;19924;-72
2022/07/25 05:08:55;;;;;;;;;;;20.60;94.90;;;;;;5090311;28;20391;-72
2022/07/25 05:11:22;;;;;;;;;;;20.60;94.90;;;;;;5092222;28;19956;-72
2022/07/25 05:13:48;;;;;;;;;;;20.60;95.00;;;;;;5089832;28;19971;-72
2022/07/25 05:16:15;;;;;;;;;;;20.60;95.00;;;;;;5087144;28;19960;-72
2022/07/25 05:18:42;;;;;;;;;;;20.60;94.90;;;;;;5084602;28;20443;-74
2022/07/25 05:21:11;;;;;;;;;;;20.70;94.80;;;;;;5070261;28;19956;-73
2022/07/25 05:23:38;;;;;;;;;;;20.70;94.80;;;;;;5071372;28;19925;-72
2022/07/25 05:26:05;;;;;;;;;;;20.70;94.80;;;;;;5071637;28;19970;-72
2022/07/25 05:28:31;;;;;;;;;;;20.80;94.90;;;;;;5072050;28;19956;-72
2022/07/25 05:30:58;;;;;;;;;;;20.80;94.90;;;;;;5071681;28;20263;-72
2022/07/25 05:33:25;;;;;;;;;;;20.70;95.00;;;;;;5072530;28;19932;-73
2022/07/25 05:35:52;;;;;;;;;;;20.80;95.20;;;;;;5085568;28;19924;-72
2022/07/25 05:38:20;;;;;;;;;;;20.80;95.10;;;;;;5072444;28;20012;-72
2022/07/25 05:40:46;;;;;;;;;;;20.80;95.40;;;;;;5092054;28;19971;-73
2022/07/25 05:43:13;;;;;;;;;;;20.80;95.70;;;;;;5090017;28;19962;-72
2022/07/25 05:45:40;;;;;;;;;;;20.90;95.60;;;;;;5092116;28;20160;-72
2022/07/25 05:48:06;;;;;;;;;;;20.90;95.70;;;;;;5090406;28;19953;-72
2022/07/25 05:50:33;;;;;;;;;;;21.00;96.10;;;;;;5070462;28;20398;-72
2022/07/25 05:53:00;;;;;;;;;;;21.00;96.20;;;;;;5071059;28;19924;-72
2022/07/25 05:55:28;;;;;;;;;;;20.90;96.70;;;;;;5090536;28;20396;-72
2022/07/25 05:57:55;;;;;;;;;;;21.00;96.90;;;;;;5092190;28;19928;-73
2022/07/25 06:00:21;;;;;;;;;;;21.00;97.10;;;;;;5072971;28;19924;-73
2022/07/25 06:02:48;;;;;;;;;;;21.00;97.40;;;;;;5071832;28;19925;-72
2022/07/25 06:05:15;;;;;;;;;;;21.10;97.30;;;;;;5088490;28;20019;-72
2022/07/25 06:07:42;;;;;;;;;;;21.20;96.90;;;;;;5086464;28;20417;-72
2022/07/25 06:10:09;;;;;;;;;;;21.10;97.10;;;;;;5087084;28;19963;-72
2022/07/25 06:12:37;;;;;;;;;;;21.20;97.10;;;;;;5091590;28;19924;-72
2022/07/25 06:15:04;;;;;;;;;;;21.30;96.90;;;;;;5088182;28;19931;-72
2022/07/25 06:17:31;;;;;;;;;;;21.30;96.70;;;;;;5072794;28;20129;-72
2022/07/25 06:19:57;;;;;;;;;;;21.50;96.20;;;;;;5082673;28;19924;-72
2022/07/25 06:22:24;;;;;;;;;;;21.70;96.00;;;;;;5071638;28;19968;-72
2022/07/25 06:24:51;;;;;;;;;;;22.30;95.50;;;;;;5071689;28;19931;-72
2022/07/25 06:27:17;;;;;;;;;;;22.90;93.50;;;;;;5070765;28;19925;-72
2022/07/25 06:29:45;;;;;;;;;;;23.10;92.80;;;;;;5085270;28;20448;-73
2022/07/25 06:32:12;;;;;;;;;;;23.00;92.70;;;;;;5094722;28;19978;-72
2022/07/25 06:34:39;;;;;;;;;;;22.80;92.90;;;;;;5092682;28;19968;-73
2022/07/25 06:37:05;;;;;;;;;;;22.50;93.50;;;;;;5095402;28;19993;-72
2022/07/25 06:39:32;;;;;;;;;;;22.20;94.60;;;;;;5093565;28;20007;-72
2022/07/25 06:42:00;;;;;;;;;;;21.90;95.40;;;;;;5095436;28;19971;-73
2022/07/25 06:44:27;;;;;;;;;;;21.80;96.30;;;;;;5082951;28;19924;-73
2022/07/25 06:46:55;;;;;;;;;;;21.80;97.00;;;;;;5075041;28;19975;-72
2022/07/25 06:49:22;;;;;;;;;;;22.20;96.80;;;;;;5084417;28;19971;-73
2022/07/25 06:51:48;;;;;;;;;;;22.60;96.00;;;;;;5092543;28;19925;-72
2022/07/25 06:54:17;;;;;;;;;;;22.70;95.60;;;;;;5080208;28;19924;-73
2022/07/25 06:56:44;;;;;;;;;;;23.70;95.70;;;;;;5077957;28;19976;-73
2022/07/25 06:59:10;;;;;;;;;;;25.10;92.30;;;;;;5083901;28;19924;-72
2022/07/25 07:01:37;;;;;;;;;;;25.30;89.60;;;;;;5097017;28;19972;-71
2022/07/25 07:04:05;;;;;;;;;;;25.20;91.10;;;;;;5092634;28;19924;-71
2022/07/25 07:06:32;;;;;;;;;;;25.30;90.00;;;;;;5094335;28;19924;-71
2022/07/25 07:08:59;;;;;;;;;;;24.90;90.30;;;;;;5092234;28;19982;-73
2022/07/25 07:11:25;;;;;;;;;;;24.80;91.30;;;;;;5093017;28;19924;-69
2022/07/25 07:13:52;;;;;;;;;;;25.00;90.70;;;;;;5078365;28;20019;-71
2022/07/25 07:16:19;;;;;;;;;;;25.10;90.80;;;;;;5094607;28;20020;-72
2022/07/25 07:18:46;;;;;;;;;;;25.20;90.20;;;;;;5089730;28;19982;-72
2022/07/25 07:21:14;;;;;;;;;;;25.60;90.20;;;;;;5074610;28;19967;-72
2022/07/25 07:23:41;;;;;;;;;;;26.50;86.30;;;;;;5080315;28;20374;-73
2022/07/25 07:26:08;;;;;;;;;;;26.70;84.60;;;;;;5083250;28;19925;-74
2022/07/25 07:28:35;;;;;;;;;;;26.00;85.10;;;;;;5074891;28;20094;-73
2022/07/25 07:31:01;;;;;;;;;;;26.80;84.90;;;;;;5093862;28;19986;-72
2022/07/25 07:33:28;;;;;;;;;;;27.10;82.10;;;;;;5091739;28;20427;-73
2022/07/25 07:35:55;;;;;;;;;;;27.10;79.80;;;;;;5084213;28;19951;-72
2022/07/25 07:38:23;;;;;;;;;;;25.90;81.50;;;;;;5074338;28;19928;-73
2022/07/25 07:40:50;;;;;;;;;;;25.10;86.60;;;;;;5093651;28;20018;-73
2022/07/25 07:43:17;;;;;;;;;;;24.90;88.70;;;;;;5091694;28;19983;-72
2022/07/25 07:45:43;;;;;;;;;;;24.70;90.00;;;;;;5094408;28;20007;-73
2022/07/25 07:48:10;;;;;;;;;;;26.80;86.80;;;;;;5092163;28;19959;-72
2022/07/25 07:50:37;;;;;;;;;;;29.00;75.70;;;;;;5079219;28;19924;-72
2022/07/25 07:53:05;;;;;;;;;;;30.10;64.60;;;;;;5092306;28;20409;-72
2022/07/25 07:55:44;;;;;;;;;;;29.80;58.80;;;;;;5073130;28;19925;-72
2022/07/25 07:58:14;;;;;;;;;;;29.50;59.10;;;;;;5072338;28;19928;-73
2022/07/25 08:00:41;;;;;;;;;;;29.30;57.10;;;;;;5073780;28;19928;-73
2022/07/25 08:03:08;;;;;;;;;;;28.90;58.90;;;;;;5073681;28;19924;-73
2022/07/25 08:05:36;;;;;;;;;;;29.20;58.60;;;;;;5093863;28;19924;-73
2022/07/25 08:08:03;;;;;;;;;;;29.30;56.30;;;;;;5092532;28;19968;-72
2022/07/25 08:10:31;;;;;;;;;;;30.00;54.90;;;;;;5073391;28;19951;-73
2022/07/25 08:12:59;;;;;;;;;;;31.20;51.30;;;;;;5072007;28;19924;-73
2022/07/25 08:15:26;;;;;;;;;;;31.10;48.60;;;;;;5089445;28;19931;-73
2022/07/25 08:17:54;;;;;;;;;;;30.70;48.80;;;;;;5083240;28;20062;-71
2022/07/25 08:20:22;;;;;;;;;;;29.70;49.60;;;;;;5089360;28;20432;-71
2022/07/25 08:22:49;;;;;;;;;;;28.20;53.10;;;;;;5093001;28;19930;-72
2022/07/25 08:25:17;;;;;;;;;;;27.60;56.10;;;;;;5074362;28;20007;-71
2022/07/25 08:27:44;;;;;;;;;;;27.90;56.40;;;;;;5072647;28;19925;-72
2022/07/25 08:30:12;;;;;;;;;;;28.80;55.10;;;;;;5088606;28;19924;-72
2022/07/25 08:32:46;;;;;;;;;;;30.10;51.50;;;;;;5079615;28;19982;-72
2022/07/25 08:35:13;;;;;;;;;;;30.70;48.70;;;;;;5071463;28;19925;-72
2022/07/25 08:37:40;;;;;;;;;;;30.90;46.00;;;;;;5072548;28;20015;-71
2022/07/25 08:40:07;;;;;;;;;;;31.10;44.10;;;;;;5088058;28;20014;-71
2022/07/25 08:42:34;;;;;;;;;;;31.00;44.30;;;;;;5092112;28;20443;-71
2022/07/25 08:45:03;;;;;;;;;;;31.10;43.10;;;;;;5090259;28;19975;-72
2022/07/25 08:47:32;;;;;;;;;;;31.40;43.10;;;;;;5071496;28;20075;-71
2022/07/25 08:49:58;;;;;;;;;;;31.60;38.10;;;;;;5084713;28;19986;-72
2022/07/25 08:52:26;;;;;;;;;;;31.50;37.00;;;;;;5072033;28;19978;-71
2022/07/25 08:54:53;;;;;;;;;;;31.30;38.30;;;;;;5084157;28;20355;-71
2022/07/25 08:57:19;;;;;;;;;;;32.00;37.80;;;;;;5092500;28;20081;-72
2022/07/25 08:59:46;;;;;;;;;;;32.90;36.20;;;;;;5090570;28;19970;-71
2022/07/25 09:02:13;;;;;;;;;;;33.00;35.30;;;;;;5092655;28;19974;-71
2022/07/25 09:04:44;;;;;;;;;;;32.60;34.30;;;;;;5090652;28;20006;-71
2022/07/25 09:07:11;;;;;;;;;;;31.80;36.00;;;;;;5077256;28;19925;-71
2022/07/25 09:09:38;;;;;;;;;;;31.50;36.40;;;;;;5090292;28;20300;-71
2022/07/25 09:12:06;;;;;;;;;;;30.80;37.70;;;;;;5091872;28;19967;-71
2022/07/25 09:14:41;;;;;;;;;;;29.80;39.90;;;;;;5085366;28;19928;-71
2022/07/25 09:17:07;;;;;;;;;;;29.70;41.20;;;;;;5092240;28;19924;-72
2022/07/25 09:19:34;;;;;;;;;;;29.80;40.50;;;;;;5078068;28;20458;-73
2022/07/25 09:22:03;;;;;;;;;;;30.60;39.40;;;;;;5072534;28;19967;-72
2022/07/25 09:24:31;;;;;;;;;;;31.00;39.40;;;;;;5082534;28;20342;-72
2022/07/25 09:26:58;;;;;;;;;;;30.90;36.90;;;;;;5075127;28;19925;-72
2022/07/25 09:29:26;;;;;;;;;;;29.70;37.70;;;;;;5081633;28;19928;-72
2022/07/25 09:31:54;;;;;;;;;;;28.30;40.70;;;;;;5092152;28;19971;-73
2022/07/25 09:34:33;;;;;;;;;;;28.40;41.80;;;;;;5089822;28;19931;-72
2022/07/25 09:37:00;;;;;;;;;;;28.80;41.10;;;;;;5072088;28;19924;-72
2022/07/25 09:39:35;;;;;;;;;;;28.00;43.00;;;;;;5081844;28;19924;-72
2022/07/25 09:42:02;;;;;;;;;;;27.70;44.40;;;;;;5086502;28;19971;-72
2022/07/25 09:44:29;;;;;;;;;;;27.20;44.10;;;;;;5077291;28;20007;-72
2022/07/25 09:46:57;;;;;;;;;;;27.10;43.90;;;;;;5091819;28;19946;-72
2022/07/25 09:49:25;;;;;;;;;;;26.90;45.70;;;;;;5079869;28;19925;-72
2022/07/25 09:51:52;;;;;;;;;;;27.20;45.80;;;;;;5072275;28;19929;-72
2022/07/25 09:54:19;;;;;;;;;;;28.30;43.10;;;;;;5081102;28;20014;-72
2022/07/25 09:56:47;;;;;;;;;;;29.40;39.40;;;;;;5091972;28;20302;-73
2022/07/25 09:59:14;;;;;;;;;;;28.90;40.00;;;;;;5080370;28;19994;-72
2022/07/25 10:01:47;;;;;;;;;;;28.50;39.50;;;;;;5072099;28;20024;-73
2022/07/25 10:04:16;;;;;;;;;;;28.40;40.50;;;;;;5072333;28;19975;-72
2022/07/25 10:06:48;;;;;;;;;;;27.50;41.60;;;;;;5075630;28;20023;-72
2022/07/25 10:09:15;;;;;;;;;;;27.70;42.40;;;;;;5083686;28;20011;-72
2022/07/25 10:11:57;;;;;;;;;;;27.80;42.00;;;;;;5089865;28;20034;-72
2022/07/25 10:14:25;;;;;;;;;;;27.60;42.60;;;;;;5093164;28;20018;-72
2022/07/25 10:16:51;;;;;;;;;;;27.60;43.80;;;;;;5078644;28;20010;-72
2022/07/25 10:19:34;;;;;;;;;;;27.40;44.50;;;;;;5074294;28;19924;-72
2022/07/25 10:22:01;;;;;;;;;;;26.80;44.70;;;;;;5074516;28;19975;-72
2022/07/25 10:24:32;;;;;;;;;;;26.20;48.30;;;;;;5074432;28;20019;-73
2022/07/25 10:27:05;;;;;;;;;;;26.20;47.90;;;;;;5075105;28;20011;-72
2022/07/25 10:29:35;;;;;;;;;;;25.90;48.20;;;;;;5074334;28;20299;-72
2022/07/25 10:32:06;;;;;;;;;;;25.70;49.60;;;;;;5074467;28;19925;-72
2022/07/25 10:34:32;;;;;;;;;;;25.90;49.50;;;;;;5085288;28;19931;-72
2022/07/25 10:37:09;;;;;;;;;;;25.80;49.90;;;;;;5094646;28;19960;-71
2022/07/25 10:39:37;;;;;;;;;;;25.60;50.20;;;;;;5092522;28;20402;-72
2022/07/25 10:42:04;;;;;;;;;;;25.30;50.50;;;;;;5094918;28;19985;-72
2022/07/25 10:44:41;;;;;;;;;;;25.00;51.70;;;;;;5094321;28;19924;-71
2022/07/25 10:47:09;;;;;;;;;;;25.00;52.70;;;;;;5097901;28;19924;-71
2022/07/25 10:49:36;;;;;;;;;;;25.00;52.80;;;;;;5094994;28;20477;-72
2022/07/25 10:52:03;;;;;;;;;;;24.90;54.40;;;;;;5095566;28;19925;-73
2022/07/25 10:54:33;;;;;;;;;;;25.10;53.10;;;;;;5092787;28;19930;-73
2022/07/25 10:57:00;;;;;;;;;;;25.10;53.50;;;;;;5078778;28;19928;-73
2022/07/25 10:59:28;;;;;;;;;;;24.80;54.70;;;;;;5084784;28;19978;-73
2022/07/25 11:01:56;;;;;;;;;;;24.60;55.60;;;;;;5094958;28;19968;-72
2022/07/25 11:04:23;;;;;;;;;;;24.40;56.50;;;;;;5092561;28;19990;-71
2022/07/25 11:06:50;;;;;;;;;;;24.40;57.40;;;;;;5093907;28;19967;-72
2022/07/25 11:09:17;;;;;;;;;;;24.10;58.00;;;;;;5082736;28;19924;-72
2022/07/25 11:11:47;;;;;;;;;;;24.10;58.50;;;;;;5092428;28;19928;-72
2022/07/25 11:14:15;;;;;;;;;;;24.10;60.00;;;;;;5088559;28;19931;-72
2022/07/25 11:16:42;;;;;;;;;;;24.30;59.00;;;;;;5093846;28;20428;-72
2022/07/25 11:19:18;;;;;;;;;;;24.00;58.00;;;;;;5084369;28;19930;-72
2022/07/25 11:21:45;;;;;;;;;;;23.90;58.20;;;;;;5094326;28;19924;-73
2022/07/25 11:24:12;;;;;;;;;;;23.60;59.20;;;;;;5082853;28;19960;-73
2022/07/25 11:26:44;;;;;;;;;;;23.40;59.50;;;;;;5073282;28;19942;-72
2022/07/25 11:29:17;;;;;;;;;;;23.20;61.00;;;;;;5081614;28;19924;-73
2022/07/25 11:31:50;;;;;;;;;;;23.30;61.80;;;;;;5082622;28;19949;-70
2022/07/25 11:34:19;;;;;;;;;;;23.20;62.20;;;;;;5082835;28;19924;-72
2022/07/25 11:36:46;;;;;;;;;;;23.10;63.90;;;;;;5090976;28;20014;-72
2022/07/25 11:39:12;;;;;;;;;;;23.10;65.40;;;;;;5081276;28;20010;-73
2022/07/25 11:41:42;;;;;;;;;;;23.30;66.40;;;;;;5094159;28;19928;-73
2022/07/25 11:44:08;;;;;;;;;;;23.60;66.40;;;;;;5091759;28;20038;-72
2022/07/25 11:46:41;;;;;;;;;;;24.00;65.30;;;;;;5093674;28;20370;-71
2022/07/25 11:49:08;;;;;;;;;;;24.30;64.50;;;;;;5092119;28;19974;-72
2022/07/25 11:51:37;;;;;;;;;;;24.40;61.90;;;;;;5093943;28;19925;-72
2022/07/25 11:54:08;;;;;;;;;;;24.60;62.20;;;;;;5091231;28;19970;-72
2022/07/25 11:56:37;;;;;;;;;;;24.70;61.90;;;;;;5093598;28;19928;-73
2022/07/25 11:59:03;;;;;;;;;;;25.00;60.70;;;;;;5091126;28;20354;-73
2022/07/25 12:01:34;;;;;;;;;;;25.30;58.90;;;;;;5093900;28;19924;-71
2022/07/25 12:04:10;;;;;;;;;;;25.70;58.40;;;;;;5091462;28;19982;-71
2022/07/25 12:06:39;;;;;;;;;;;25.60;58.20;;;;;;5073366;28;19975;-71
2022/07/25 12:09:13;;;;;;;;;;;25.50;56.90;;;;;;5080102;28;20386;-72
2022/07/25 12:11:40;;;;;;;;;;;24.90;58.00;;;;;;5092141;28;19931;-72
2022/07/25 12:14:07;;;;;;;;;;;25.00;58.50;;;;;;5080271;28;19928;-72
2022/07/25 12:16:34;;;;;;;;;;;24.90;58.70;;;;;;5087854;28;19974;-72
2022/07/25 12:19:01;;;;;;;;;;;24.90;58.60;;;;;;5091094;28;20418;-72
2022/07/25 12:21:28;;;;;;;;;;;24.70;56.40;;;;;;5079864;28;19979;-72
2022/07/25 12:23:58;;;;;;;;;;;24.40;57.20;;;;;;5078001;28;21291;-72
2022/07/25 12:26:25;;;;;;;;;;;24.20;57.30;;;;;;5071632;28;19932;-72
2022/07/25 12:28:51;;;;;;;;;;;24.10;57.70;;;;;;5077365;28;19970;-72
2022/07/25 12:31:18;;;;;;;;;;;24.20;58.40;;;;;;5091284;28;19993;-72
2022/07/25 12:33:45;;;;;;;;;;;24.60;58.40;;;;;;5072748;28;19977;-73
2022/07/25 12:36:12;;;;;;;;;;;24.90;55.50;;;;;;5074172;28;20345;-72
2022/07/25 12:38:39;;;;;;;;;;;24.90;54.60;;;;;;5075535;28;19924;-72
2022/07/25 12:41:07;;;;;;;;;;;25.10;53.90;;;;;;5093227;28;19978;-73
2022/07/25 12:43:34;;;;;;;;;;;25.10;51.80;;;;;;5090889;28;19924;-72
2022/07/25 12:46:01;;;;;;;;;;;25.10;51.50;;;;;;5092635;28;19954;-71
2022/07/25 12:48:27;;;;;;;;;;;25.30;51.10;;;;;;5083629;28;19935;-73
2022/07/25 12:50:54;;;;;;;;;;;25.50;50.40;;;;;;5092793;28;20006;-73
2022/07/25 12:53:21;;;;;;;;;;;25.50;48.60;;;;;;5090248;28;19967;-72
2022/07/25 12:55:47;;;;;;;;;;;25.50;48.50;;;;;;5081115;28;20354;-72
2022/07/25 12:58:16;;;;;;;;;;;25.50;48.00;;;;;;5071265;28;20036;-73
2022/07/25 13:00:43;;;;;;;;;;;25.50;47.10;;;;;;5092872;28;20004;-72
2022/07/25 13:03:10;;;;;;;;;;;25.50;47.60;;;;;;5079002;28;19925;-73
2022/07/25 13:05:37;;;;;;;;;;;25.40;47.60;;;;;;5072399;28;20456;-73
2022/07/25 13:08:04;;;;;;;;;;;25.70;49.20;;;;;;5071810;28;20015;-73
2022/07/25 13:10:30;;;;;;;;;;;26.00;46.60;;;;;;5073432;28;20011;-72
2022/07/25 13:12:57;;;;;;;;;;;25.70;46.70;;;;;;5072459;28;19925;-73
2022/07/25 13:15:27;;;;;;;;;;;25.80;47.30;;;;;;5086684;28;19924;-73
2022/07/25 13:17:53;;;;;;;;;;;26.10;47.30;;;;;;5093072;28;20003;-73
2022/07/25 13:20:20;;;;;;;;;;;26.10;45.20;;;;;;5073031;28;19967;-73
2022/07/25 13:22:47;;;;;;;;;;;25.90;46.50;;;;;;5072249;28;19977;-73
2022/07/25 13:25:13;;;;;;;;;;;25.80;46.80;;;;;;5087298;28;20335;-72
2022/07/25 13:27:40;;;;;;;;;;;25.70;45.80;;;;;;5071258;28;19967;-73
2022/07/25 13:30:07;;;;;;;;;;;25.90;44.50;;;;;;5087210;28;19924;-73
2022/07/25 13:32:36;;;;;;;;;;;25.80;44.50;;;;;;5072249;28;19951;-72
2022/07/25 13:35:03;;;;;;;;;;;25.90;45.40;;;;;;5073539;28;19925;-73
2022/07/25 13:37:29;;;;;;;;;;;26.00;44.40;;;;;;5071324;28;20011;-72
2022/07/25 13:39:56;;;;;;;;;;;25.60;45.60;;;;;;5082903;28;20012;-72
2022/07/25 13:42:23;;;;;;;;;;;25.00;44.30;;;;;;5075776;28;19924;-72
2022/07/25 13:44:49;;;;;;;;;;;25.10;43.20;;;;;;5088917;28;19969;-72
2022/07/25 13:47:16;;;;;;;;;;;25.20;42.40;;;;;;5096667;28;19924;-73
2022/07/25 13:49:44;;;;;;;;;;;25.10;43.00;;;;;;5093627;28;19987;-73
2022/07/25 13:52:11;;;;;;;;;;;25.10;42.00;;;;;;5086495;28;21294;-72
2022/07/25 13:54:38;;;;;;;;;;;25.10;42.10;;;;;;5087473;28;19924;-72
2022/07/25 13:57:04;;;;;;;;;;;25.50;41.50;;;;;;5092059;28;20019;-74
2022/07/25 13:59:31;;;;;;;;;;;25.50;40.60;;;;;;5086835;28;20351;-74
2022/07/25 14:01:58;;;;;;;;;;;25.30;40.60;;;;;;5096172;28;20371;-74
2022/07/25 14:04:24;;;;;;;;;;;25.20;40.90;;;;;;5084172;28;19967;-72
2022/07/25 14:06:53;;;;;;;;;;;25.40;40.10;;;;;;5075660;28;19924;-72
2022/07/25 14:09:20;;;;;;;;;;;25.30;40.00;;;;;;5072366;28;19975;-73
2022/07/25 14:11:47;;;;;;;;;;;25.30;39.70;;;;;;5075524;28;19971;-73
2022/07/25 14:14:13;;;;;;;;;;;25.10;39.80;;;;;;5083700;28;19975;-72
2022/07/25 14:16:40;;;;;;;;;;;25.10;39.40;;;;;;5096072;28;20412;-72